createdAt,value
2019-03-25T00:00:54.686Z,24.80
2019-03-25T00:03:24.197Z,20.23
2019-03-25T00:05:54.889Z,19.93
2019-03-25T00:08:24.331Z,21.90
2019-03-25T00:10:53.819Z,19.03
2019-03-25T00:13:23.330Z,18.90
2019-03-25T00:15:52.912Z,19.20
2019-03-25T00:18:22.391Z,20.03
2019-03-25T00:20:51.907Z,19.73
2019-03-25T00:23:21.312Z,20.13
2019-03-25T00:25:50.820Z,19.77
2019-03-25T00:28:20.304Z,18.67
2019-03-25T00:30:51.086Z,19.70
2019-03-25T00:33:20.567Z,16.63
2019-03-25T00:35:51.286Z,20.77
2019-03-25T00:38:20.766Z,18.60
2019-03-25T00:40:51.484Z,18.80
2019-03-25T00:43:20.899Z,18.90
2019-03-25T00:45:51.679Z,21.00
2019-03-25T00:48:21.083Z,20.03
2019-03-25T00:50:50.598Z,20.13
2019-03-25T00:53:20.078Z,21.17
2019-03-25T00:55:49.602Z,21.73
2019-03-25T00:58:19.081Z,20.90
2019-03-25T01:00:48.531Z,22.87
2019-03-25T01:03:18.010Z,22.50
2019-03-25T01:05:47.599Z,20.60
2019-03-25T01:08:17.082Z,22.87
2019-03-25T01:10:46.523Z,21.70
2019-03-25T01:13:15.946Z,22.70
2019-03-25T01:15:46.836Z,23.10
2019-03-25T01:18:17.315Z,23.00
2019-03-25T01:20:48.263Z,23.93
2019-03-25T01:23:17.746Z,23.33
2019-03-25T01:25:48.468Z,24.02
2019-03-25T01:28:17.886Z,25.27
2019-03-25T01:30:47.355Z,24.65
2019-03-25T01:33:16.763Z,23.53
2019-03-25T01:35:47.750Z,22.22
2019-03-25T01:38:17.169Z,24.07
2019-03-25T01:40:46.610Z,25.32
2019-03-25T01:43:16.089Z,25.02
2019-03-25T01:45:46.180Z,25.10
2019-03-25T01:48:15.592Z,25.17
2019-03-25T01:50:46.310Z,22.80
2019-03-25T01:53:15.722Z,22.80
2019-03-25T01:55:46.438Z,24.47
2019-03-25T01:58:15.925Z,23.10
2019-03-25T02:00:46.717Z,21.93
2019-03-25T02:03:16.210Z,22.45
2019-03-25T02:05:46.932Z,21.35
2019-03-25T02:08:16.411Z,20.17
2019-03-25T02:10:47.127Z,21.17
2019-03-25T02:13:16.544Z,20.77
2019-03-25T02:15:47.332Z,19.82
2019-03-25T02:18:16.814Z,20.10
2019-03-25T02:20:46.333Z,19.82
2019-03-25T02:23:15.751Z,18.35
2019-03-25T02:25:46.467Z,19.05
2019-03-25T02:28:15.952Z,19.25
2019-03-25T02:30:46.672Z,18.80
2019-03-25T02:33:16.107Z,17.48
2019-03-25T02:35:46.808Z,17.40
2019-03-25T02:38:16.225Z,17.23
2019-03-25T02:40:46.939Z,17.12
2019-03-25T02:43:16.350Z,17.45
2019-03-25T02:45:47.065Z,17.65
2019-03-25T02:48:16.476Z,17.65
2019-03-25T02:50:47.459Z,17.90
2019-03-25T02:53:16.866Z,16.25
2019-03-25T02:55:46.320Z,15.23
2019-03-25T02:58:15.728Z,15.60
2019-03-25T03:00:46.449Z,16.55
2019-03-25T03:03:15.927Z,16.57
2019-03-25T03:05:46.755Z,16.15
2019-03-25T03:08:16.168Z,16.35
2019-03-25T03:10:45.684Z,14.78
2019-03-25T03:13:15.166Z,13.72
2019-03-25T03:15:45.913Z,15.32
2019-03-25T03:18:15.370Z,13.62
2019-03-25T03:20:46.044Z,14.35
2019-03-25T03:23:15.461Z,13.25
2019-03-25T03:25:56.448Z,14.47
2019-03-25T03:28:16.010Z,13.15
2019-03-25T03:30:45.442Z,14.80
2019-03-25T03:33:14.961Z,13.65
2019-03-25T03:35:46.691Z,12.95
2019-03-25T03:38:16.274Z,12.82
2019-03-25T03:40:46.959Z,13.88
2019-03-25T03:43:16.431Z,12.90
2019-03-25T03:45:47.105Z,11.48
2019-03-25T03:48:16.550Z,11.70
2019-03-25T03:50:47.224Z,11.43
2019-03-25T03:53:16.673Z,13.03
2019-03-25T03:55:47.355Z,12.18
2019-03-25T03:58:16.788Z,10.78
2019-03-25T04:00:47.482Z,10.53
2019-03-25T04:03:16.981Z,9.88
2019-03-25T04:05:46.483Z,10.35
2019-03-25T04:08:15.984Z,10.00
2019-03-25T04:10:45.395Z,8.90
2019-03-25T04:13:14.828Z,8.55
2019-03-25T04:15:47.316Z,8.48
2019-03-25T04:18:16.743Z,9.33
2019-03-25T04:20:46.147Z,8.43
2019-03-25T04:23:15.589Z,8.48
2019-03-25T04:25:46.261Z,7.58
2019-03-25T04:28:15.773Z,9.83
2019-03-25T04:30:45.181Z,8.23
2019-03-25T04:33:14.622Z,8.05
2019-03-25T04:35:45.539Z,7.75
2019-03-25T04:38:15.062Z,7.97
2019-03-25T04:40:44.538Z,7.42
2019-03-25T04:43:14.043Z,7.67
2019-03-25T04:45:44.826Z,7.25
2019-03-25T04:48:14.289Z,7.50
2019-03-25T04:50:45.068Z,7.85
2019-03-25T04:53:14.624Z,7.67
2019-03-25T04:55:45.302Z,7.45
2019-03-25T04:58:14.808Z,7.58
2019-03-25T05:00:45.483Z,7.33
2019-03-25T05:03:14.926Z,6.72
2019-03-25T05:05:44.395Z,5.90
2019-03-25T05:08:13.840Z,6.40
2019-03-25T05:10:44.512Z,6.97
2019-03-25T05:13:13.942Z,6.33
2019-03-25T05:15:43.497Z,8.40
2019-03-25T05:18:13.008Z,8.40
2019-03-25T05:20:42.486Z,8.00
2019-03-25T05:23:11.914Z,6.65
2019-03-25T05:25:41.318Z,6.87
2019-03-25T05:28:10.759Z,7.62
2019-03-25T05:30:40.167Z,7.67
2019-03-25T05:33:09.603Z,6.92
2019-03-25T05:35:40.376Z,7.08
2019-03-25T05:38:09.872Z,6.92
2019-03-25T05:40:39.310Z,6.47
2019-03-25T05:43:08.742Z,6.60
2019-03-25T05:45:38.142Z,7.70
2019-03-25T05:48:07.575Z,7.15
2019-03-25T05:50:38.311Z,6.30
2019-03-25T05:53:07.760Z,6.78
2019-03-25T05:55:40.817Z,6.70
2019-03-25T05:58:09.495Z,7.33
2019-03-25T06:00:39.268Z,6.25
2019-03-25T06:03:08.784Z,7.83
2019-03-25T06:05:38.212Z,7.67
2019-03-25T06:08:07.651Z,8.53
2019-03-25T06:10:37.127Z,7.12
2019-03-25T06:13:06.567Z,7.62
2019-03-25T06:15:37.238Z,7.10
2019-03-25T06:18:06.684Z,6.97
2019-03-25T06:20:37.359Z,7.03
2019-03-25T06:23:06.793Z,7.20
2019-03-25T06:25:37.756Z,6.97
2019-03-25T06:28:07.193Z,7.05
2019-03-25T06:30:36.605Z,7.95
2019-03-25T06:33:12.308Z,6.90
2019-03-25T06:35:37.271Z,7.00
2019-03-25T06:38:06.721Z,7.20
2019-03-25T06:40:36.296Z,7.15
2019-03-25T06:43:05.800Z,7.00
2019-03-25T06:45:36.487Z,6.40
2019-03-25T06:48:05.930Z,7.30
2019-03-25T06:50:35.327Z,6.78
2019-03-25T06:53:04.770Z,7.03
2019-03-25T06:55:34.183Z,6.78
2019-03-25T06:58:03.599Z,7.80
2019-03-25T07:00:33.039Z,6.83
2019-03-25T07:03:02.450Z,7.53
2019-03-25T07:05:31.965Z,6.42
2019-03-25T07:08:01.422Z,6.80
2019-03-25T07:10:33.151Z,7.03
2019-03-25T07:13:03.798Z,7.00
2019-03-25T07:15:35.617Z,7.57
2019-03-25T07:18:05.069Z,7.20
2019-03-25T07:20:35.775Z,7.87
2019-03-25T07:23:05.188Z,7.83
2019-03-25T07:25:36.095Z,7.73
2019-03-25T07:28:05.766Z,7.73
2019-03-25T07:30:36.478Z,8.13
2019-03-25T07:33:05.882Z,7.80
2019-03-25T07:35:35.327Z,8.70
2019-03-25T07:38:04.994Z,7.30
2019-03-25T07:40:35.699Z,8.33
2019-03-25T07:43:05.174Z,8.90
2019-03-25T07:45:34.688Z,8.10
2019-03-25T07:48:04.296Z,8.27
2019-03-25T07:50:35.095Z,8.57
2019-03-25T07:53:04.502Z,8.20
2019-03-25T07:55:35.230Z,8.53
2019-03-25T07:58:04.623Z,8.30
2019-03-25T08:00:35.351Z,8.57
2019-03-25T08:03:04.826Z,7.70
2019-03-25T08:05:35.618Z,8.93
2019-03-25T08:08:07.336Z,8.67
2019-03-25T08:10:37.536Z,9.13
2019-03-25T08:13:07.024Z,9.10
2019-03-25T08:15:36.561Z,8.80
2019-03-25T08:18:05.965Z,9.40
2019-03-25T08:20:36.682Z,9.17
2019-03-25T08:23:06.087Z,9.37
2019-03-25T08:25:35.526Z,9.17
2019-03-25T08:28:05.004Z,9.33
2019-03-25T08:30:34.442Z,10.07
2019-03-25T08:33:03.918Z,8.47
2019-03-25T08:35:34.675Z,8.88
2019-03-25T08:38:04.123Z,8.03
2019-03-25T08:40:34.873Z,8.00
2019-03-25T08:43:04.357Z,8.38
2019-03-25T08:45:33.854Z,7.42
2019-03-25T08:48:03.346Z,8.43
2019-03-25T08:50:32.866Z,8.85
2019-03-25T08:53:02.347Z,8.85
2019-03-25T08:55:31.867Z,8.78
2019-03-25T08:58:11.455Z,8.40
2019-03-25T09:00:33.719Z,8.40
2019-03-25T09:03:03.202Z,8.95
2019-03-25T09:05:32.713Z,8.55
2019-03-25T09:08:02.261Z,8.83
2019-03-25T09:10:33.079Z,8.95
2019-03-25T09:13:02.563Z,9.30
2019-03-25T09:15:33.282Z,8.83
2019-03-25T09:18:02.691Z,8.38
2019-03-25T09:20:33.518Z,7.87
2019-03-25T09:23:03.092Z,8.87
2019-03-25T09:25:33.814Z,8.30
2019-03-25T09:28:03.267Z,8.50
2019-03-25T09:30:55.381Z,8.40
2019-03-25T09:33:24.798Z,8.68
2019-03-25T09:35:55.590Z,7.87
2019-03-25T09:38:25.009Z,7.53
2019-03-25T09:40:56.289Z,8.43
2019-03-25T09:43:25.700Z,7.67
2019-03-25T09:45:56.405Z,7.30
2019-03-25T09:48:25.810Z,7.57
2019-03-25T09:50:55.231Z,7.93
2019-03-25T09:53:24.644Z,6.83
2019-03-25T09:55:54.095Z,7.00
2019-03-25T09:58:35.378Z,7.73
2019-03-25T10:00:56.051Z,8.07
2019-03-25T10:03:25.525Z,7.70
2019-03-25T10:05:56.240Z,8.33
2019-03-25T10:08:27.176Z,7.60
2019-03-25T10:10:57.876Z,7.60
2019-03-25T10:13:27.284Z,7.87
2019-03-25T10:15:56.731Z,7.20
2019-03-25T10:18:28.971Z,7.60
2019-03-25T10:20:58.475Z,7.13
2019-03-25T10:23:27.876Z,7.63
2019-03-25T10:25:57.339Z,9.07
2019-03-25T10:28:26.740Z,9.23
2019-03-25T10:30:57.450Z,8.80
2019-03-25T10:33:26.862Z,11.47
2019-03-25T10:35:56.393Z,10.23
2019-03-25T10:38:25.852Z,9.43
2019-03-25T10:40:55.276Z,10.30
2019-03-25T10:43:24.762Z,9.55
2019-03-25T10:45:55.487Z,9.58
2019-03-25T10:48:24.909Z,10.73
2019-03-25T10:50:54.355Z,10.25
2019-03-25T10:53:23.840Z,9.33
2019-03-25T10:55:54.552Z,8.10
2019-03-25T10:58:23.954Z,8.93
2019-03-25T11:00:53.408Z,8.10
2019-03-25T11:03:22.815Z,8.30
2019-03-25T11:05:52.263Z,8.30
2019-03-25T11:08:21.678Z,9.10
2019-03-25T11:10:51.263Z,8.33
2019-03-25T11:13:20.680Z,9.45
2019-03-25T11:15:51.411Z,8.27
2019-03-25T11:18:20.827Z,9.43
2019-03-25T11:20:50.241Z,10.27
2019-03-25T11:23:19.747Z,8.37
2019-03-25T11:25:50.436Z,8.33
2019-03-25T11:28:19.875Z,10.30
2019-03-25T11:30:50.917Z,9.03
2019-03-25T11:33:20.350Z,8.63
2019-03-25T11:35:51.026Z,9.43
2019-03-25T11:38:20.466Z,9.13
2019-03-25T11:40:51.207Z,7.90
2019-03-25T11:43:20.721Z,7.43
2019-03-25T11:45:51.394Z,7.00
2019-03-25T11:48:20.931Z,7.07
2019-03-25T11:50:50.389Z,5.90
2019-03-25T11:53:20.075Z,5.63
2019-03-25T11:55:50.742Z,5.60
2019-03-25T11:58:20.180Z,5.80
2019-03-25T12:00:49.656Z,6.43
2019-03-25T12:03:19.103Z,5.37
2019-03-25T12:05:50.481Z,5.70
2019-03-25T12:08:20.328Z,5.47
2019-03-25T12:10:49.772Z,6.20
2019-03-25T12:13:19.218Z,9.73
2019-03-25T12:15:48.621Z,2.50
2019-03-25T12:18:18.126Z,4.37
2019-03-25T12:20:47.607Z,2.27
2019-03-25T12:23:26.032Z,2.65
2019-03-25T12:25:49.317Z,1.75
2019-03-25T12:28:20.746Z,2.40
2019-03-25T12:30:50.898Z,3.35
2019-03-25T12:33:20.614Z,2.80
2019-03-25T12:35:51.369Z,1.40
2019-03-25T12:38:20.879Z,1.60
2019-03-25T12:40:50.293Z,1.80
2019-03-25T12:43:19.815Z,2.15
2019-03-25T12:45:49.362Z,2.22
2019-03-25T12:48:18.806Z,2.40
2019-03-25T12:50:48.193Z,2.50
2019-03-25T12:53:17.633Z,1.53
2019-03-25T12:55:48.315Z,2.47
2019-03-25T12:58:17.827Z,1.63
2019-03-25T13:00:48.499Z,2.00
2019-03-25T13:03:18.087Z,1.93
2019-03-25T13:05:48.765Z,1.90
2019-03-25T13:08:18.268Z,2.57
2019-03-25T13:10:47.981Z,2.70
2019-03-25T13:13:17.410Z,3.20
2019-03-25T13:15:46.890Z,2.30
2019-03-25T13:18:16.394Z,2.33
2019-03-25T13:20:45.867Z,2.70
2019-03-25T13:23:15.362Z,2.53
2019-03-25T13:25:46.044Z,2.72
2019-03-25T13:28:15.562Z,2.35
2019-03-25T13:30:46.132Z,2.33
2019-03-25T13:33:15.565Z,2.22
2019-03-25T13:35:44.970Z,2.15
2019-03-25T13:38:14.486Z,2.20
2019-03-25T13:40:43.964Z,2.25
2019-03-25T13:43:13.466Z,2.70
2019-03-25T13:45:44.075Z,2.40
2019-03-25T13:48:13.487Z,1.90
2019-03-25T13:50:44.158Z,2.20
2019-03-25T13:53:13.860Z,2.20
2019-03-25T13:55:43.263Z,2.37
2019-03-25T13:58:12.787Z,2.23
2019-03-25T14:00:44.063Z,2.47
2019-03-25T14:03:13.494Z,3.10
2019-03-25T14:05:42.964Z,2.77
2019-03-25T14:08:12.414Z,3.37
2019-03-25T14:10:41.813Z,3.00
2019-03-25T14:13:11.218Z,2.67
2019-03-25T14:15:41.829Z,3.63
2019-03-25T14:18:11.248Z,1.80
2019-03-25T14:20:40.686Z,2.77
2019-03-25T14:23:10.172Z,1.95
2019-03-25T14:25:39.601Z,2.00
2019-03-25T14:28:09.099Z,2.50
2019-03-25T14:30:38.545Z,2.85
2019-03-25T14:33:08.010Z,3.40
2019-03-25T14:35:37.486Z,4.08
2019-03-25T14:38:06.860Z,3.75
2019-03-25T14:40:37.332Z,4.15
2019-03-25T14:43:06.819Z,2.40
2019-03-25T14:45:37.543Z,2.37
2019-03-25T14:48:07.054Z,1.97
2019-03-25T14:50:37.765Z,1.97
2019-03-25T14:53:07.176Z,2.27
2019-03-25T14:55:36.625Z,1.90
2019-03-25T14:58:06.160Z,2.40
2019-03-25T15:00:35.599Z,2.50
2019-03-25T15:03:05.006Z,4.17
2019-03-25T15:05:34.514Z,3.20
2019-03-25T15:08:03.979Z,3.40
2019-03-25T15:10:33.488Z,4.40
2019-03-25T15:13:02.886Z,3.50
2019-03-25T15:15:33.742Z,3.47
2019-03-25T15:18:03.356Z,2.80
2019-03-25T15:20:32.788Z,3.17
2019-03-25T15:23:02.358Z,5.73
2019-03-25T15:25:33.903Z,6.13
2019-03-25T15:28:03.415Z,4.03
2019-03-25T15:30:36.183Z,3.30
2019-03-25T15:33:05.204Z,3.47
2019-03-25T15:35:34.639Z,2.10
2019-03-25T15:38:04.039Z,1.40
2019-03-25T15:40:33.644Z,2.40
2019-03-25T15:43:03.138Z,2.47
2019-03-25T15:45:33.838Z,2.00
2019-03-25T15:48:03.243Z,1.50
2019-03-25T15:50:33.847Z,2.92
2019-03-25T15:53:03.251Z,4.50
2019-03-25T15:55:32.693Z,1.65
2019-03-25T15:58:02.168Z,3.45
2019-03-25T16:00:31.668Z,4.40
2019-03-25T16:03:01.072Z,2.35
2019-03-25T16:05:31.770Z,1.80
2019-03-25T16:08:01.209Z,1.95
2019-03-25T16:10:30.713Z,2.15
2019-03-25T16:13:00.159Z,1.57
2019-03-25T16:15:41.632Z,3.33
2019-03-25T16:18:12.739Z,1.90
2019-03-25T16:20:43.447Z,1.52
2019-03-25T16:23:12.919Z,1.47
2019-03-25T16:25:42.364Z,1.70
2019-03-25T16:28:11.770Z,1.60
2019-03-25T16:30:41.219Z,2.17
2019-03-25T16:33:10.669Z,1.52
2019-03-25T16:35:41.381Z,2.00
2019-03-25T16:38:10.784Z,1.90
2019-03-25T16:40:41.490Z,2.00
2019-03-25T16:43:10.969Z,1.92
2019-03-25T16:45:41.689Z,2.50
2019-03-25T16:48:11.091Z,2.62
2019-03-25T16:50:40.528Z,2.05
2019-03-25T16:53:09.928Z,2.30
2019-03-25T16:55:39.433Z,3.00
2019-03-25T16:58:08.832Z,3.27
2019-03-25T17:00:38.334Z,2.77
2019-03-25T17:03:07.803Z,2.83
2019-03-25T17:05:37.319Z,2.70
2019-03-25T17:08:06.731Z,2.62
2019-03-25T17:10:37.437Z,2.92
2019-03-25T17:13:06.949Z,2.80
2019-03-25T17:15:37.703Z,3.42
2019-03-25T17:18:07.134Z,3.20
2019-03-25T17:20:37.811Z,3.30
2019-03-25T17:23:07.250Z,10.85
2019-03-25T17:25:36.654Z,3.10
2019-03-25T17:28:06.090Z,3.02
2019-03-25T17:30:36.773Z,3.20
2019-03-25T17:33:06.200Z,3.98
2019-03-25T17:35:35.620Z,2.85
2019-03-25T17:38:05.051Z,3.35
2019-03-25T17:40:35.969Z,2.60
2019-03-25T17:43:05.615Z,2.83
2019-03-25T17:45:35.028Z,6.17
2019-03-25T17:48:04.514Z,5.65
2019-03-25T17:50:35.187Z,5.20
2019-03-25T17:53:04.628Z,5.35
2019-03-25T17:55:34.096Z,4.00
2019-03-25T17:58:03.530Z,4.90
2019-03-25T18:00:51.069Z,6.12
2019-03-25T18:03:20.571Z,5.75
2019-03-25T18:05:51.431Z,3.92
2019-03-25T18:08:20.911Z,3.80
2019-03-25T18:10:51.573Z,5.33
2019-03-25T18:13:22.656Z,4.53
2019-03-25T18:15:53.497Z,4.30
2019-03-25T18:18:22.939Z,3.25
2019-03-25T18:20:53.615Z,2.62
2019-03-25T18:23:23.067Z,3.05
2019-03-25T18:25:52.472Z,2.83
2019-03-25T18:28:21.905Z,2.47
2019-03-25T18:30:52.586Z,2.77
2019-03-25T18:33:22.027Z,2.50
2019-03-25T18:35:52.702Z,2.00
2019-03-25T18:38:22.138Z,2.10
2019-03-25T18:40:51.551Z,2.35
2019-03-25T18:43:20.981Z,2.60
2019-03-25T18:45:50.396Z,2.15
2019-03-25T18:48:19.848Z,2.25
2019-03-25T18:50:49.270Z,2.10
2019-03-25T18:53:18.694Z,2.60
2019-03-25T18:55:48.092Z,2.62
2019-03-25T18:58:17.522Z,2.95
2019-03-25T19:00:46.929Z,2.47
2019-03-25T19:03:18.354Z,3.50
2019-03-25T19:05:47.392Z,3.80
2019-03-25T19:08:16.885Z,3.72
2019-03-25T19:10:47.517Z,3.58
2019-03-25T19:13:16.948Z,3.00
2019-03-25T19:15:47.690Z,3.87
2019-03-25T19:18:17.130Z,3.52
2019-03-25T19:20:47.798Z,3.42
2019-03-25T19:23:17.306Z,4.30
2019-03-25T19:25:46.718Z,2.98
2019-03-25T19:28:16.230Z,2.87
2019-03-25T19:30:47.279Z,3.33
2019-03-25T19:33:16.711Z,2.65
2019-03-25T19:35:47.375Z,2.33
2019-03-25T19:38:16.892Z,2.77
2019-03-25T19:40:46.321Z,2.30
2019-03-25T19:43:15.725Z,2.60
2019-03-25T19:45:45.143Z,2.52
2019-03-25T19:48:14.578Z,3.12
2019-03-25T19:50:43.974Z,2.77
2019-03-25T19:53:19.040Z,2.80
2019-03-25T19:55:44.503Z,2.98
2019-03-25T19:58:14.038Z,3.50
2019-03-25T20:00:43.478Z,3.33
2019-03-25T20:03:13.081Z,3.75
2019-03-25T20:05:42.594Z,10.35
2019-03-25T20:08:12.073Z,3.12
2019-03-25T20:10:42.775Z,3.40
2019-03-25T20:13:12.160Z,3.27
2019-03-25T20:15:46.481Z,3.58
2019-03-25T20:18:14.030Z,3.27
2019-03-25T20:20:45.621Z,3.35
2019-03-25T20:23:15.023Z,3.52
2019-03-25T20:25:44.467Z,3.22
2019-03-25T20:28:13.883Z,3.27
2019-03-25T20:30:44.570Z,3.65
2019-03-25T20:33:14.110Z,4.17
2019-03-25T20:35:43.515Z,4.05
2019-03-25T20:38:12.911Z,3.20
2019-03-25T20:40:43.770Z,2.90
2019-03-25T20:43:13.223Z,2.80
2019-03-25T20:45:43.813Z,18.75
2019-03-25T20:48:13.218Z,5.83
2019-03-25T20:50:43.970Z,17.05
2019-03-25T20:53:13.732Z,4.95
2019-03-25T20:55:44.465Z,4.90
2019-03-25T20:58:13.837Z,56.53
2019-03-25T21:00:51.582Z,10.13
2019-03-25T21:03:21.008Z,5.95
2019-03-25T21:05:51.662Z,4.80
2019-03-25T21:08:21.268Z,4.40
2019-03-25T21:10:53.019Z,6.10
2019-03-25T21:13:22.476Z,4.28
2019-03-25T21:15:53.393Z,5.70
2019-03-25T21:18:23.179Z,4.17
2019-03-25T21:20:53.906Z,2.50
2019-03-25T21:23:23.355Z,3.15
2019-03-25T21:25:52.810Z,5.85
2019-03-25T21:28:22.267Z,2.87
2019-03-25T21:30:53.358Z,2.90
2019-03-25T21:33:23.098Z,2.02
2019-03-25T21:35:52.586Z,1.90
2019-03-25T21:38:23.728Z,1.70
2019-03-25T21:40:53.227Z,2.20
2019-03-25T21:43:22.915Z,2.22
2019-03-25T21:45:53.782Z,1.50
2019-03-25T21:48:23.276Z,3.15
2019-03-25T21:50:52.994Z,1.65
2019-03-25T21:53:22.575Z,2.20
2019-03-25T21:55:52.507Z,2.77
2019-03-25T21:58:22.523Z,1.50
2019-03-25T22:00:53.277Z,1.40
2019-03-25T22:03:22.648Z,1.55
2019-03-25T22:05:52.358Z,2.05
2019-03-25T22:08:21.771Z,3.98
2019-03-25T22:10:51.212Z,2.80
2019-03-25T22:13:20.611Z,3.37
2019-03-25T22:15:50.129Z,13.03
2019-03-25T22:18:19.530Z,5.65
2019-03-25T22:20:50.519Z,20.95
2019-03-25T22:23:20.195Z,24.92
2019-03-25T22:25:49.713Z,16.75
2019-03-25T22:28:19.135Z,30.45
2019-03-25T22:30:48.671Z,3.10
2019-03-25T22:33:25.687Z,4.45
2019-03-25T22:35:49.150Z,19.32
2019-03-25T22:38:18.555Z,7.75
2019-03-25T22:40:49.366Z,51.95
2019-03-25T22:43:18.780Z,13.43
2019-03-25T22:45:49.587Z,2.50
2019-03-25T22:48:18.989Z,22.48
2019-03-25T22:50:48.437Z,22.85
2019-03-25T22:53:17.862Z,9.15
2019-03-25T22:55:48.907Z,4.90
2019-03-25T22:58:18.368Z,5.30
2019-03-25T23:00:48.089Z,80.67
2019-03-25T23:03:17.562Z,6.50
2019-03-25T23:05:48.474Z,22.93
2019-03-25T23:08:17.981Z,2.35
2019-03-25T23:10:48.885Z,1.70
2019-03-25T23:13:18.394Z,2.10
2019-03-25T23:15:47.892Z,2.50
2019-03-25T23:18:17.338Z,5.75
2019-03-25T23:20:46.803Z,18.60
2019-03-25T23:23:16.311Z,12.98
2019-03-25T23:25:47.086Z,27.32
2019-03-25T23:28:16.605Z,12.95
2019-03-25T23:30:47.375Z,4.10
2019-03-25T23:33:16.810Z,10.25
2019-03-25T23:35:46.920Z,7.15
2019-03-25T23:38:16.426Z,16.77
2019-03-25T23:40:45.829Z,18.95
2019-03-25T23:43:15.401Z,14.28
2019-03-25T23:45:46.503Z,3.90
2019-03-25T23:48:16.053Z,6.92
2019-03-25T23:50:45.442Z,4.22
2019-03-25T23:53:14.938Z,12.40
2019-03-25T23:55:44.452Z,11.08
2019-03-25T23:58:13.887Z,2.40
